Time;durP1;ratioP1;P1;durP2;ratioP2;P2;SDS_P1;SDS_P2;PMS_P1;PMS_P2;Temp;Humidity;BMP_temperature;BMP_pressure;BME280_temperature;BME280_humidity;BME280_pressure;Samples;Min_cycle;Max_cycle;Signal;HPM_P1;HPM_P2
2021/05/08 00:00:39;;;;;;;13.13;8.37;;;;;;;5.90;72.11;99894.61;153643;1097;103538;-74
2021/05/08 00:03:43;;;;;;;11.30;8.63;;;;;;;5.86;72.24;99893.20;153617;1104;103225;-76
2021/05/08 00:06:46;;;;;;;13.10;8.60;;;;;;;5.84;72.10;99889.84;153587;1097;103148;-76
2021/05/08 00:09:50;;;;;;;11.93;9.63;;;;;;;5.74;72.82;99902.20;153626;1097;103503;-78
2021/05/08 00:12:54;;;;;;;13.13;8.80;;;;;;;5.68;72.50;99903.56;153621;1104;103227;-74
2021/05/08 00:15:58;;;;;;;14.95;8.33;;;;;;;5.69;72.38;99904.39;153656;1104;103205;-75
2021/05/08 00:19:02;;;;;;;10.13;7.57;;;;;;;5.76;72.41;99904.73;153596;1104;103134;-74
2021/05/08 00:22:06;;;;;;;11.33;7.70;;;;;;;5.79;72.59;99915.87;153663;1097;103133;-75
2021/05/08 00:25:12;;;;;;;11.87;7.83;;;;;;;5.80;72.41;99914.91;153613;1096;103213;-78
2021/05/08 00:28:15;;;;;;;10.23;7.63;;;;;;;5.81;72.43;99923.69;153625;1104;103227;-75
2021/05/08 00:31:19;;;;;;;11.58;7.48;;;;;;;5.75;72.87;99927.69;153624;1104;103165;-77
2021/05/08 00:34:22;;;;;;;9.05;6.58;;;;;;;5.69;72.88;99931.69;153637;1097;103138;-76
2021/05/08 00:37:26;;;;;;;10.63;7.05;;;;;;;5.65;72.65;99927.63;153590;1096;103212;-74
2021/05/08 00:40:30;;;;;;;9.85;6.88;;;;;;;5.74;73.15;99936.62;153604;1097;103208;-75
2021/05/08 00:43:34;;;;;;;8.25;6.50;;;;;;;5.73;72.57;99944.69;153640;1097;103224;-76
2021/05/08 00:46:39;;;;;;;8.70;6.80;;;;;;;5.69;72.87;99949.39;153597;1097;103163;-75
2021/05/08 00:49:45;;;;;;;8.60;6.60;;;;;;;5.71;72.76;99950.10;153639;1104;103286;-75
2021/05/08 00:52:48;;;;;;;10.53;7.13;;;;;;;5.71;72.55;99952.75;153631;1104;103064;-74
2021/05/08 00:55:53;;;;;;;8.35;6.20;;;;;;;5.69;72.50;99966.11;153599;1104;103503;-76
2021/05/08 00:58:58;;;;;;;7.55;6.00;;;;;;;5.71;72.51;99964.17;153648;1097;103278;-76
2021/05/08 01:02:02;;;;;;;7.60;5.45;;;;;;;5.77;72.05;99965.46;153686;1096;103242;-74
2021/05/08 01:05:08;;;;;;;8.37;5.93;;;;;;;5.81;72.50;99972.20;153641;1104;103116;-74
2021/05/08 01:08:13;;;;;;;7.05;6.15;;;;;;;5.90;72.31;99978.52;153614;1096;103142;-75
2021/05/08 01:11:17;;;;;;;8.50;6.13;;;;;;;5.93;72.18;99975.63;153594;1104;103138;-76
2021/05/08 01:14:22;;;;;;;8.18;6.55;;;;;;;5.89;72.13;99979.50;153655;1097;103298;-76
2021/05/08 01:17:26;;;;;;;7.90;6.37;;;;;;;5.86;71.55;99985.88;153666;1104;103160;-81
2021/05/08 01:20:32;;;;;;;7.25;5.43;;;;;;;5.85;72.37;99986.00;153741;1104;103390;-76
2021/05/08 01:23:38;;;;;;;7.47;5.73;;;;;;;5.78;72.21;99984.86;153650;1104;103115;-77
2021/05/08 01:26:41;;;;;;;7.05;5.38;;;;;;;5.86;72.09;100001.77;153594;1104;103192;-76
2021/05/08 01:29:45;;;;;;;6.10;5.25;;;;;;;5.87;72.12;99992.86;153638;1097;103273;-76
2021/05/08 01:32:50;;;;;;;6.90;5.33;;;;;;;5.89;72.02;99998.88;153637;1096;103170;-75
2021/05/08 01:35:55;;;;;;;8.00;5.40;;;;;;;5.93;72.20;100002.11;153675;1097;103142;-76
2021/05/08 01:39:02;;;;;;;8.70;5.90;;;;;;;5.89;71.72;100009.46;153596;1097;103212;-74
2021/05/08 01:42:06;;;;;;;6.50;5.53;;;;;;;5.87;71.77;100007.89;153608;1097;103210;-75
2021/05/08 01:45:14;;;;;;;6.75;5.35;;;;;;;5.78;72.12;100009.52;153621;1097;103394;-75
2021/05/08 01:48:18;;;;;;;5.88;5.05;;;;;;;5.77;72.27;100013.12;153824;1097;103495;-75
2021/05/08 01:51:22;;;;;;;5.68;4.93;;;;;;;5.79;72.42;100013.83;153657;1104;103141;-75
2021/05/08 01:54:25;;;;;;;6.47;5.13;;;;;;;5.78;71.94;100013.98;153617;1104;103167;-76
2021/05/08 01:57:29;;;;;;;5.98;4.70;;;;;;;5.77;72.00;100018.41;153624;1105;103138;-76
2021/05/08 02:00:36;;;;;;;5.30;4.68;;;;;;;5.74;72.13;100029.28;153827;1097;103295;-76
2021/05/08 02:03:40;;;;;;;7.10;5.53;;;;;;;5.57;72.45;100021.89;153689;1105;103214;-76
2021/05/08 02:06:49;;;;;;;6.68;5.38;;;;;;;5.49;72.92;100023.36;153610;1104;103216;-76
2021/05/08 02:10:01;;;;;;;6.75;5.55;;;;;;;5.41;72.28;100033.73;153722;1097;103155;-77
2021/05/08 02:13:07;;;;;;;5.80;5.20;;;;;;;5.43;72.38;100034.45;153623;1104;103157;-75
2021/05/08 02:16:11;;;;;;;6.17;4.80;;;;;;;5.54;73.45;100045.95;153639;1104;103304;-76
2021/05/08 02:19:15;;;;;;;7.30;5.20;;;;;;;5.57;72.12;100046.55;153836;1104;103165;-78
2021/05/08 02:22:19;;;;;;;6.60;5.03;;;;;;;5.61;72.26;100052.44;153604;1104;103704;-75
2021/05/08 02:25:24;;;;;;;6.30;5.30;;;;;;;5.62;72.67;100052.31;153623;1104;103141;-74
2021/05/08 02:28:28;;;;;;;7.20;5.53;;;;;;;5.63;72.39;100061.09;153656;1104;103222;-76
2021/05/08 02:31:32;;;;;;;8.13;5.65;;;;;;;5.57;72.46;100061.59;153572;1097;103291;-73
2021/05/08 02:34:36;;;;;;;7.47;6.27;;;;;;;5.53;72.37;100063.65;153640;1096;103213;-78
2021/05/08 02:37:40;;;;;;;7.13;5.67;;;;;;;5.58;72.46;100061.48;153618;1104;103314;-74
2021/05/08 02:40:44;;;;;;;5.43;4.90;;;;;;;5.65;72.02;100067.09;153576;1104;103208;-73
2021/05/08 02:43:48;;;;;;;6.75;5.80;;;;;;;5.66;72.47;100068.79;153611;1104;103526;-75
2021/05/08 02:46:52;;;;;;;7.63;6.00;;;;;;;5.70;72.17;100072.86;153627;1097;103272;-76
2021/05/08 02:49:56;;;;;;;7.83;7.00;;;;;;;5.65;72.45;100078.52;153619;1097;103192;-75
2021/05/08 02:52:59;;;;;;;8.40;6.57;;;;;;;5.66;72.16;100080.20;153728;1096;103135;-75
2021/05/08 02:56:06;;;;;;;9.60;7.67;;;;;;;5.62;72.61;100093.80;153589;1105;103203;-72
2021/05/08 02:59:16;;;;;;;8.53;6.80;;;;;;;5.61;72.23;100092.97;153648;1104;103137;-72
2021/05/08 03:02:20;;;;;;;7.07;6.37;;;;;;;5.65;72.46;100093.56;153617;1097;103304;-73
2021/05/08 03:05:24;;;;;;;8.90;7.67;;;;;;;5.58;72.10;100089.73;153665;1096;103185;-74
2021/05/08 03:08:43;;;;;;;9.97;7.83;;;;;;;5.64;72.35;100091.87;153581;1104;103220;-72
2021/05/08 03:11:51;;;;;;;10.47;7.93;;;;;;;5.60;72.13;100086.02;153643;1097;103205;-72
2021/05/08 03:14:55;;;;;;;11.05;8.73;;;;;;;5.61;72.58;100098.27;153669;1097;103229;-75
2021/05/08 03:17:58;;;;;;;9.95;8.48;;;;;;;5.51;72.36;100106.11;153602;1097;103289;-74
2021/05/08 03:21:03;;;;;;;11.90;9.15;;;;;;;5.58;72.67;100097.67;153609;1104;103185;-74
2021/05/08 03:24:09;;;;;;;9.70;8.00;;;;;;;5.68;72.21;100101.27;153587;1104;103567;-75
2021/05/08 03:27:13;;;;;;;8.37;6.97;;;;;;;5.81;72.18;100109.89;153585;1104;103240;-73
2021/05/08 03:30:19;;;;;;;9.43;7.80;;;;;;;5.93;72.50;100112.47;153629;1097;103211;-72
2021/05/08 03:33:24;;;;;;;8.90;7.57;;;;;;;6.01;72.22;100110.08;153651;1096;103400;-72
2021/05/08 03:36:29;;;;;;;8.50;7.60;;;;;;;6.03;71.82;100116.92;153599;1097;103171;-72
2021/05/08 03:39:33;;;;;;;9.05;7.65;;;;;;;6.05;71.91;100120.28;153624;1104;103199;-74
2021/05/08 03:42:36;;;;;;;9.20;7.75;;;;;;;6.01;71.69;100118.86;153629;1104;103115;-72
2021/05/08 03:45:40;;;;;;;10.33;7.70;;;;;;;6.04;72.03;100120.40;153653;1105;103123;-74
2021/05/08 03:48:44;;;;;;;10.27;7.13;;;;;;;6.08;72.19;100127.98;153597;1104;103287;-75
2021/05/08 03:52:01;;;;;;;7.60;6.25;;;;;;;6.19;72.13;100127.07;153610;1097;103135;-73
2021/05/08 03:55:06;;;;;;;8.00;6.45;;;;;;;6.21;71.81;100132.25;153584;1097;103145;-78
2021/05/08 03:58:10;;;;;;;8.18;6.05;;;;;;;6.15;71.62;100128.30;153602;1104;103118;-76
2021/05/08 04:01:14;;;;;;;6.93;5.68;;;;;;;6.14;71.65;100141.66;153631;1104;103138;-75
2021/05/08 04:04:17;;;;;;;8.15;6.05;;;;;;;6.15;71.71;100133.59;153629;1096;103422;-75
2021/05/08 04:07:21;;;;;;;7.25;5.90;;;;;;;6.16;72.02;100131.78;153619;1097;103129;-73
2021/05/08 04:10:25;;;;;;;8.30;5.53;;;;;;;6.18;71.98;100138.66;153577;1097;103135;-80
2021/05/08 04:13:28;;;;;;;6.15;4.75;;;;;;;6.20;71.75;100149.96;153616;1104;103246;-75
2021/05/08 04:16:32;;;;;;;6.73;4.70;;;;;;;6.25;71.36;100152.22;153657;1104;103126;-75
2021/05/08 04:19:38;;;;;;;7.25;4.90;;;;;;;6.29;71.38;100158.94;153705;1104;103193;-74
2021/05/08 04:22:42;;;;;;;6.65;5.30;;;;;;;6.41;71.55;100157.06;153622;1104;103210;-76
2021/05/08 04:25:46;;;;;;;6.00;4.80;;;;;;;6.46;71.44;100161.02;153583;1097;103193;-74
2021/05/08 04:28:49;;;;;;;6.28;4.80;;;;;;;6.39;71.40;100166.95;153591;1104;103139;-75
2021/05/08 04:31:53;;;;;;;8.37;5.20;;;;;;;6.27;71.85;100148.49;153618;1096;103214;-76
2021/05/08 04:34:56;;;;;;;5.63;4.10;;;;;;;6.26;71.58;100160.05;153698;1096;103282;-78
2021/05/08 04:38:04;;;;;;;5.57;4.30;;;;;;;6.30;71.69;100163.28;153662;1104;103189;-76
2021/05/08 04:41:08;;;;;;;4.97;3.50;;;;;;;6.35;71.84;100168.19;153693;1097;103169;-76
2021/05/08 04:44:12;;;;;;;4.30;3.50;;;;;;;6.38;71.03;100171.42;153614;1097;103195;-77
2021/05/08 04:47:16;;;;;;;4.40;3.28;;;;;;;6.33;71.47;100183.38;153596;1097;103136;-77
2021/05/08 04:50:20;;;;;;;4.50;3.50;;;;;;;6.40;71.15;100176.61;153747;1104;103372;-76
2021/05/08 04:53:27;;;;;;;5.20;3.60;;;;;;;6.43;71.09;100186.96;153721;1104;103497;-73
2021/05/08 04:56:31;;;;;;;5.30;3.83;;;;;;;6.48;71.14;100182.93;153703;1104;103132;-74
2021/05/08 04:59:44;;;;;;;5.43;4.17;;;;;;;6.55;71.07;100185.92;153657;1104;103216;-74
2021/05/08 05:02:48;;;;;;;5.53;4.20;;;;;;;6.58;71.59;100196.28;153633;1096;103166;-74
2021/05/08 05:05:52;;;;;;;5.40;4.00;;;;;;;6.71;71.41;100205.84;153612;1104;103272;-76
2021/05/08 05:08:56;;;;;;;6.27;4.27;;;;;;;6.88;70.92;100199.95;153722;1104;103212;-74
2021/05/08 05:12:00;;;;;;;7.07;5.37;;;;;;;7.05;71.22;100207.30;153613;1096;103201;-76
2021/05/08 05:15:05;;;;;;;7.65;5.00;;;;;;;7.18;70.90;100217.72;153603;1096;103134;-73
2021/05/08 05:18:08;;;;;;;6.88;5.13;;;;;;;7.22;70.26;100210.33;153677;1104;103139;-74
2021/05/08 05:21:12;;;;;;;7.90;5.57;;;;;;;7.21;70.78;100219.25;153634;1096;103202;-74
2021/05/08 05:24:15;;;;;;;6.55;5.20;;;;;;;7.28;70.67;100228.38;153796;1104;103154;-74
2021/05/08 05:27:19;;;;;;;6.50;5.18;;;;;;;7.38;70.94;100226.59;153635;1097;103128;-75
2021/05/08 05:30:23;;;;;;;8.88;5.95;;;;;;;7.46;71.06;100220.62;153630;1097;103129;-76
2021/05/08 05:33:27;;;;;;;6.25;4.58;;;;;;;7.57;70.38;100227.66;153616;1104;103139;-73
2021/05/08 05:36:31;;;;;;;7.17;5.00;;;;;;;7.77;70.92;100233.86;153952;1095;103496;-75
2021/05/08 05:39:35;;;;;;;7.10;5.20;;;;;;;7.96;70.05;100230.41;154093;1096;103108;-76
2021/05/08 05:42:39;;;;;;;7.47;5.43;;;;;;;8.17;70.02;100225.83;153719;1104;103123;-74
2021/05/08 05:45:43;;;;;;;6.30;5.17;;;;;;;8.35;69.28;100231.31;153722;1104;103132;-76
2021/05/08 05:48:46;;;;;;;6.03;4.87;;;;;;;8.61;70.03;100234.27;153700;1104;103230;-78
2021/05/08 05:51:50;;;;;;;6.70;5.03;;;;;;;8.79;69.15;100236.21;153685;1096;103336;-77
2021/05/08 05:54:54;;;;;;;6.20;4.93;;;;;;;8.74;69.65;100233.16;153739;1104;103150;-78
2021/05/08 05:57:58;;;;;;;6.83;5.00;;;;;;;8.79;69.26;100246.85;153835;1104;103153;-76
2021/05/08 06:01:01;;;;;;;8.50;5.10;;;;;;;8.74;67.87;100249.13;153694;1104;103431;-77
2021/05/08 06:04:05;;;;;;;7.57;5.80;;;;;;;8.72;68.41;100241.27;153829;1104;103330;-75
2021/05/08 06:07:09;;;;;;;6.37;4.90;;;;;;;8.70;68.71;100247.70;153805;1104;103180;-75
2021/05/08 06:10:14;;;;;;;5.90;4.93;;;;;;;8.63;68.39;100245.61;153760;1096;103139;-74
2021/05/08 06:13:18;;;;;;;7.10;4.83;;;;;;;8.75;69.36;100242.80;153912;1104;103139;-73
2021/05/08 06:16:21;;;;;;;6.48;4.50;;;;;;;8.93;68.81;100251.75;153672;1104;103155;-74
2021/05/08 06:19:25;;;;;;;7.90;4.57;;;;;;;9.00;68.24;100257.33;153758;1097;103208;-72
2021/05/08 06:22:33;;;;;;;6.80;4.67;;;;;;;8.95;68.58;100257.77;153726;1104;103275;-73
2021/05/08 06:25:37;;;;;;;6.13;4.95;;;;;;;9.03;68.57;100265.88;153820;1096;103205;-71
2021/05/08 06:28:40;;;;;;;7.13;5.23;;;;;;;9.17;68.40;100266.41;153707;1104;103131;-72
2021/05/08 06:31:44;;;;;;;9.87;5.23;;;;;;;9.19;67.29;100264.44;153643;1104;103215;-71
2021/05/08 06:34:49;;;;;;;5.63;4.50;;;;;;;9.03;68.37;100259.72;153743;1104;103108;-71
2021/05/08 06:37:52;;;;;;;5.87;4.80;;;;;;;8.83;67.44;100261.55;153833;1096;103211;-73
2021/05/08 06:40:56;;;;;;;6.00;5.03;;;;;;;8.82;68.27;100267.87;153716;1104;103152;-73
2021/05/08 06:44:00;;;;;;;6.13;5.03;;;;;;;8.86;67.90;100271.92;153761;1104;103129;-71
2021/05/08 06:47:04;;;;;;;6.73;4.83;;;;;;;8.85;66.90;100267.56;154155;1096;103199;-73
2021/05/08 06:50:10;;;;;;;6.97;5.40;;;;;;;8.78;67.46;100271.80;153692;1104;103201;-71
2021/05/08 06:53:14;;;;;;;6.00;3.80;;;;;;;8.81;66.61;100276.81;153912;1104;103306;-72
2021/05/08 06:56:17;;;;;;;7.23;4.03;;;;;;;8.63;66.46;100282.84;153748;1104;103126;-73
2021/05/08 06:59:20;;;;;;;4.83;3.73;;;;;;;8.70;67.11;100276.95;153759;1104;103198;-72
2021/05/08 07:02:24;;;;;;;6.70;3.85;;;;;;;8.85;67.28;100275.55;153700;1104;104087;-73
2021/05/08 07:05:31;;;;;;;5.73;4.10;;;;;;;9.04;67.48;100278.21;153710;1096;103109;-72
2021/05/08 07:08:34;;;;;;;5.07;4.13;;;;;;;9.13;67.42;100286.31;153660;1104;103198;-73
2021/05/08 07:11:38;;;;;;;6.18;4.18;;;;;;;9.46;66.91;100282.30;153659;1096;103210;-71
2021/05/08 07:14:42;;;;;;;6.10;3.90;;;;;;;9.95;66.71;100282.95;153651;1104;103115;-71
2021/05/08 07:17:58;;;;;;;6.33;4.00;;;;;;;10.32;66.50;100278.55;153797;1096;103109;-74
2021/05/08 07:21:01;;;;;;;5.13;4.07;;;;;;;10.60;66.17;100280.17;153681;1104;103148;-74
2021/05/08 07:24:06;;;;;;;6.10;3.75;;;;;;;10.62;64.83;100285.33;153659;1096;103304;-72
2021/05/08 07:27:10;;;;;;;5.65;3.38;;;;;;;10.54;63.84;100290.59;153653;1096;103162;-77
2021/05/08 07:30:15;;;;;;;6.37;3.50;;;;;;;10.55;65.25;100285.11;153633;1104;103134;-72
2021/05/08 07:33:19;;;;;;;4.43;3.23;;;;;;;10.78;62.77;100287.33;153688;1104;103201;-71
2021/05/08 07:36:23;;;;;;;5.47;3.23;;;;;;;10.60;61.73;100293.51;153640;1104;103272;-74
2021/05/08 07:39:27;;;;;;;4.63;2.65;;;;;;;10.75;62.38;100284.95;153584;1104;103235;-72
2021/05/08 07:42:30;;;;;;;6.23;2.70;;;;;;;10.78;62.79;100289.99;153691;1096;103175;-72
2021/05/08 07:45:34;;;;;;;4.40;2.70;;;;;;;10.95;64.70;100285.61;153630;1104;103200;-72
2021/05/08 07:48:38;;;;;;;4.53;2.80;;;;;;;11.22;62.69;100292.67;153699;1096;103155;-72
2021/05/08 07:51:41;;;;;;;4.50;2.43;;;;;;;11.48;61.32;100302.52;153638;1096;103192;-72
2021/05/08 07:54:45;;;;;;;4.25;2.75;;;;;;;11.28;61.43;100296.52;153601;1104;103376;-73
2021/05/08 07:57:49;;;;;;;4.77;2.70;;;;;;;11.09;58.64;100308.27;153635;1096;103209;-71
2021/05/08 08:00:52;;;;;;;4.63;2.30;;;;;;;10.72;60.24;100304.79;153654;1104;103130;-73
2021/05/08 08:03:56;;;;;;;4.60;2.40;;;;;;;10.54;59.62;100310.09;153621;1104;103602;-73
2021/05/08 08:06:59;;;;;;;4.13;2.50;;;;;;;10.31;60.70;100308.86;153691;1096;103477;-72
2021/05/08 08:10:03;;;;;;;4.40;2.60;;;;;;;10.15;60.84;100315.66;153620;1104;103279;-73
2021/05/08 08:13:07;;;;;;;5.45;2.40;;;;;;;10.03;61.07;100311.52;153645;1104;103226;-72
2021/05/08 08:16:11;;;;;;;6.00;2.10;;;;;;;10.15;61.24;100307.66;153661;1104;103208;-72
2021/05/08 08:19:14;;;;;;;3.53;2.10;;;;;;;10.43;61.00;100297.01;153706;1096;103476;-71
2021/05/08 08:22:18;;;;;;;4.50;1.90;;;;;;;10.76;61.75;100302.66;153765;1096;103134;-73
2021/05/08 08:25:22;;;;;;;2.70;1.90;;;;;;;11.08;61.56;100306.58;153719;1096;103272;-72
2021/05/08 08:28:25;;;;;;;4.25;1.90;;;;;;;11.12;58.82;100302.59;153758;1104;103515;-74
2021/05/08 08:31:29;;;;;;;3.00;1.93;;;;;;;10.88;58.62;100308.59;153650;1096;103199;-73
2021/05/08 08:34:33;;;;;;;2.67;1.57;;;;;;;10.55;59.44;100311.79;153616;1096;103201;-74
2021/05/08 08:37:36;;;;;;;3.45;1.70;;;;;;;10.38;60.67;100320.62;153708;1104;103134;-74
2021/05/08 08:40:40;;;;;;;3.58;1.90;;;;;;;10.20;58.09;100326.73;153570;1104;103275;-71
2021/05/08 08:43:46;;;;;;;3.53;2.00;;;;;;;9.68;59.39;100334.40;153553;1104;103205;-71
2021/05/08 08:46:51;;;;;;;4.03;2.35;;;;;;;9.30;61.04;100341.49;153432;1096;103205;-69
2021/05/08 08:49:58;;;;;;;3.93;2.33;;;;;;;9.12;62.25;100351.17;153733;1096;103493;-70
2021/05/08 08:53:01;;;;;;;6.55;4.95;;;;;;;8.99;62.41;100351.48;153596;1104;103134;-70
2021/05/08 08:56:06;;;;;;;5.40;3.43;;;;;;;8.84;62.27;100354.55;153681;1096;103135;-70
2021/05/08 08:59:15;;;;;;;8.35;4.98;;;;;;;8.79;63.12;100355.94;153477;1103;103202;-72
2021/05/08 09:02:19;;;;;;;6.05;3.60;;;;;;;8.82;63.45;100350.34;153513;1104;103135;-69
2021/05/08 09:05:25;;;;;;;4.90;2.88;;;;;;;9.11;63.45;100352.17;153449;1104;103128;-71
2021/05/08 09:08:31;;;;;;;5.70;3.33;;;;;;;9.35;63.00;100347.24;153770;1096;103055;-69
2021/05/08 09:11:45;;;;;;;5.33;3.20;;;;;;;9.56;61.51;100362.17;153528;1096;104100;-70
2021/05/08 09:14:51;;;;;;;4.67;2.87;;;;;;;9.69;60.24;100356.55;153616;1096;103208;-70
2021/05/08 09:17:55;;;;;;;4.60;2.50;;;;;;;10.14;62.01;100345.99;153471;1104;103207;-70
2021/05/08 09:20:59;;;;;;;5.35;2.63;;;;;;;10.25;57.11;100352.10;153507;1104;103161;-68
2021/05/08 09:24:03;;;;;;;3.88;2.50;;;;;;;10.15;58.97;100344.98;153459;1096;103151;-70
2021/05/08 09:27:07;;;;;;;6.43;2.53;;;;;;;10.39;58.38;100354.29;153618;1096;103762;-68
2021/05/08 09:30:18;;;;;;;3.28;2.20;;;;;;;10.54;59.41;100352.79;153526;1104;103131;-69
2021/05/08 09:33:24;;;;;;;3.90;2.20;;;;;;;10.67;57.84;100352.43;154741;1096;103199;-72
2021/05/08 09:36:47;;;;;;;4.87;2.57;;;;;;;10.90;58.48;100350.16;154361;1101;103579;-75
2021/05/08 09:39:51;;;;;;;6.30;2.90;;;;;;;11.11;56.84;100349.84;153678;1097;103032;-72
2021/05/08 09:42:56;;;;;;;3.85;1.90;;;;;;;10.75;54.00;100343.67;153798;1097;103285;-73
2021/05/08 09:46:00;;;;;;;6.40;2.20;;;;;;;10.61;57.83;100358.38;153785;1104;103236;-71
2021/05/08 09:49:21;;;;;;;4.23;2.27;;;;;;;10.69;58.02;100355.78;153665;1097;103138;-73
2021/05/08 09:52:24;;;;;;;3.33;2.30;;;;;;;10.69;57.44;100349.62;153578;1104;103142;-72
2021/05/08 09:55:28;;;;;;;5.80;2.37;;;;;;;10.87;56.72;100353.11;153618;1104;103170;-74
2021/05/08 09:58:32;;;;;;;4.65;2.55;;;;;;;11.06;57.25;100346.78;153583;1097;103324;-72
2021/05/08 10:01:35;;;;;;;3.48;2.28;;;;;;;11.15;57.20;100343.19;153631;1104;103157;-71
2021/05/08 10:04:42;;;;;;;3.83;2.30;;;;;;;11.08;56.71;100349.30;153603;1104;103117;-72
2021/05/08 10:07:46;;;;;;;5.13;2.13;;;;;;;10.88;57.28;100367.32;153560;1097;103196;-71
2021/05/08 10:10:49;;;;;;;5.13;2.73;;;;;;;10.76;56.71;100369.38;153620;1097;103222;-71
2021/05/08 10:13:54;;;;;;;3.55;2.35;;;;;;;10.66;57.37;100356.08;153590;1104;103589;-73
2021/05/08 10:16:59;;;;;;;5.23;2.87;;;;;;;10.86;55.47;100362.13;153615;1096;103524;-72
2021/05/08 10:20:07;;;;;;;5.80;2.80;;;;;;;10.82;55.15;100363.43;153555;1097;103156;-71
2021/05/08 10:23:13;;;;;;;4.43;2.77;;;;;;;10.88;57.37;100353.98;153556;1097;103251;-71
2021/05/08 10:26:17;;;;;;;5.30;3.27;;;;;;;11.03;54.67;100362.27;153664;1097;103477;-71
2021/05/08 10:29:21;;;;;;;4.00;2.50;;;;;;;11.21;57.69;100355.09;153649;1097;103285;-72
2021/05/08 10:32:25;;;;;;;5.18;2.60;;;;;;;11.21;54.44;100347.08;153655;1097;103209;-73
2021/05/08 10:35:44;;;;;;;5.13;2.45;;;;;;;11.23;54.07;100358.44;153602;1104;103139;-71
2021/05/08 10:39:06;;;;;;;4.10;2.40;;;;;;;11.22;55.84;100361.26;153599;1095;103503;-72
2021/05/08 10:42:12;;;;;;;3.15;2.00;;;;;;;11.26;53.36;100367.97;153599;1097;103205;-72
2021/05/08 10:45:34;;;;;;;3.20;2.10;;;;;;;11.18;52.90;100353.58;153808;1104;103280;-72
2021/05/08 10:48:38;;;;;;;4.85;2.65;;;;;;;11.28;54.10;100358.83;153674;1104;103222;-74
2021/05/08 10:51:59;;;;;;;3.45;2.30;;;;;;;11.28;52.46;100356.16;153590;1104;103115;-72
2021/05/08 10:55:20;;;;;;;19.20;8.47;;;;;;;11.03;54.00;100363.13;153557;1097;104031;-72
2021/05/08 10:58:32;;;;;;;38.00;18.50;;;;;;;10.69;55.00;100361.13;153621;1097;103137;-74
2021/05/08 11:01:43;;;;;;;18.97;10.10;;;;;;;10.54;55.36;100371.47;153639;1097;103196;-71
2021/05/08 11:05:18;;;;;;;12.87;6.83;;;;;;;10.77;56.98;100357.70;153678;1104;103158;-73
2021/05/08 11:08:47;;;;;;;17.43;8.23;;;;;;;11.22;55.90;100361.26;153595;1096;103154;-72
2021/05/08 11:11:52;;;;;;;29.15;12.38;;;;;;;11.45;55.67;100350.91;153693;1104;103219;-72
2021/05/08 11:14:56;;;;;;;12.20;5.30;;;;;;;11.50;53.62;100354.80;153619;1104;103205;-71
2021/05/08 11:18:03;;;;;;;7.37;3.50;;;;;;;11.39;54.19;100353.23;153635;1097;103298;-72
2021/05/08 11:21:50;;;;;;;6.25;3.18;;;;;;;11.44;54.75;100354.59;153654;1104;103205;-71
2021/05/08 11:24:53;;;;;;;6.00;2.80;;;;;;;11.53;53.79;100350.99;153611;1104;103240;-72
2021/05/08 11:28:08;;;;;;;7.90;3.53;;;;;;;11.64;52.53;100350.70;153600;1097;103109;-71
2021/05/08 11:31:13;;;;;;;6.60;3.30;;;;;;;11.74;52.97;100353.27;153583;1104;103144;-71
2021/05/08 11:34:19;;;;;;;7.58;3.95;;;;;;;11.74;51.84;100355.94;153615;1104;103311;-70
2021/05/08 11:37:23;;;;;;;5.45;2.30;;;;;;;11.88;52.14;100357.21;153645;1097;103547;-72
2021/05/08 11:40:34;;;;;;;2.90;2.10;;;;;;;12.01;50.54;100372.83;153632;1097;103138;-72
2021/05/08 11:43:37;;;;;;;4.08;2.10;;;;;;;11.90;50.81;100368.61;153593;1104;103144;-72
2021/05/08 11:46:41;;;;;;;4.37;2.20;;;;;;;11.82;50.78;100363.16;153585;1097;103229;-72
2021/05/08 11:49:54;;;;;;;3.40;1.83;;;;;;;12.00;52.81;100357.80;153615;1097;103272;-73
2021/05/08 11:52:58;;;;;;;4.18;1.80;;;;;;;12.22;50.72;100359.05;153620;1104;103231;-74
2021/05/08 11:56:01;;;;;;;4.33;1.60;;;;;;;12.30;49.67;100346.55;153595;1104;103167;-71
2021/05/08 11:59:07;;;;;;;3.15;1.73;;;;;;;12.54;49.72;100355.65;153657;1097;103617;-71
2021/05/08 12:02:18;;;;;;;4.18;2.30;;;;;;;12.71;50.91;100359.20;153665;1104;103231;-71
2021/05/08 12:05:23;;;;;;;3.80;1.85;;;;;;;12.79;49.77;100353.03;153652;1104;103206;-72
2021/05/08 12:08:27;;;;;;;2.87;1.80;;;;;;;12.77;47.90;100347.83;153618;1097;103142;-72
2021/05/08 12:11:31;;;;;;;4.65;2.35;;;;;;;12.74;48.00;100345.47;153609;1097;103505;-72
2021/05/08 12:14:43;;;;;;;7.67;3.57;;;;;;;12.65;49.02;100354.52;153566;1104;103570;-72
2021/05/08 12:17:45;;;;;;;;;;;;;;;12.83;47.49;100347.16;153623;1104;103208;-74
2021/05/08 12:20:50;;;;;;;4.20;2.00;;;;;;;13.00;45.78;100353.38;153617;1104;103152;-71
2021/05/08 12:23:54;;;;;;;2.47;1.30;;;;;;;13.12;46.31;100337.81;153664;1104;103250;-74
2021/05/08 12:26:58;;;;;;;3.77;1.70;;;;;;;13.40;46.61;100350.91;153609;1096;103156;-73
2021/05/08 12:30:01;;;;;;;3.68;1.65;;;;;;;13.32;46.32;100357.11;153587;1104;103210;-71
2021/05/08 12:33:05;;;;;;;4.35;2.08;;;;;;;13.41;46.27;100345.36;153671;1104;103204;-74
2021/05/08 12:36:16;;;;;;;2.97;1.60;;;;;;;13.63;45.51;100325.06;153566;1097;103182;-71
2021/05/08 12:39:21;;;;;;;3.95;1.90;;;;;;;13.90;47.25;100336.38;153672;1097;103115;-71
2021/05/08 12:42:41;;;;;;;3.13;1.70;;;;;;;14.08;46.48;100344.19;153651;1097;103205;-72
2021/05/08 12:46:03;;;;;;;8.20;2.65;;;;;;;13.85;46.98;100342.25;153637;1097;103157;-72
2021/05/08 12:49:08;;;;;;;;;;;;;;;13.68;43.86;100345.98;153599;1104;103149;-75
2021/05/08 12:52:25;;;;;;;4.50;1.57;;;;;;;13.25;44.42;100340.82;153579;1104;103198;-73
2021/05/08 12:55:33;;;;;;;4.13;2.00;;;;;;;13.01;46.33;100338.14;153640;1104;103205;-70
2021/05/08 12:58:37;;;;;;;6.30;2.60;;;;;;;12.95;45.52;100327.11;153602;1104;103141;-71
2021/05/08 13:01:44;;;;;;;5.38;2.35;;;;;;;13.05;46.60;100336.80;153605;1104;103208;-72
2021/05/08 13:04:49;;;;;;;4.10;1.75;;;;;;;13.05;41.84;100350.19;153622;1104;103149;-74
2021/05/08 13:08:00;;;;;;;5.40;2.43;;;;;;;12.98;44.31;100344.67;153604;1104;103432;-72
2021/05/08 13:11:04;;;;;;;2.13;1.30;;;;;;;13.03;42.99;100336.98;153602;1104;103234;-71
2021/05/08 13:14:22;;;;;;;5.05;2.63;;;;;;;13.12;44.10;100335.96;153558;1097;103570;-71
2021/05/08 13:17:26;;;;;;;3.73;1.70;;;;;;;13.05;41.15;100336.80;153615;1104;103128;-73
2021/05/08 13:20:32;;;;;;;3.18;1.85;;;;;;;12.98;43.36;100354.56;153624;1105;103162;-71
2021/05/08 13:23:35;;;;;;;2.68;1.60;;;;;;;13.10;44.99;100343.33;153533;1096;103580;-71
2021/05/08 13:26:39;;;;;;;5.13;2.13;;;;;;;13.40;43.50;100343.70;153604;1097;103228;-72
2021/05/08 13:29:43;;;;;;;4.53;2.20;;;;;;;13.45;40.68;100345.86;153575;1104;103187;-73
2021/05/08 13:32:48;;;;;;;3.03;1.57;;;;;;;13.58;42.84;100350.70;153624;1097;103526;-72
2021/05/08 13:35:52;;;;;;;4.33;1.90;;;;;;;13.75;41.32;100349.66;153630;1097;103154;-71
2021/05/08 13:38:56;;;;;;;2.68;1.55;;;;;;;13.81;43.63;100350.83;153588;1104;103200;-74
2021/05/08 13:41:59;;;;;;;3.95;2.28;;;;;;;13.88;44.08;100341.09;153669;1104;103157;-72
2021/05/08 13:45:04;;;;;;;6.20;3.73;;;;;;;14.06;41.52;100354.27;153605;1104;103139;-71
2021/05/08 13:48:08;;;;;;;6.90;4.20;;;;;;;13.94;40.19;100346.58;153615;1104;103206;-71
2021/05/08 13:51:11;;;;;;;5.03;2.60;;;;;;;13.73;41.40;100339.10;153639;1097;103168;-73
2021/05/08 13:54:15;;;;;;;4.80;2.60;;;;;;;13.58;43.44;100340.81;153610;1104;103321;-72
2021/05/08 13:57:19;;;;;;;6.17;2.50;;;;;;;13.50;43.12;100351.55;153612;1097;103160;-72
2021/05/08 14:00:23;;;;;;;6.97;3.40;;;;;;;13.29;41.34;100362.77;153613;1104;103227;-72
2021/05/08 14:03:27;;;;;;;3.20;2.10;;;;;;;12.86;41.60;100356.73;153588;1104;103480;-73
2021/05/08 14:06:30;;;;;;;5.33;2.63;;;;;;;12.61;42.35;100366.55;153611;1104;103136;-72
2021/05/08 14:09:34;;;;;;;5.03;2.87;;;;;;;12.62;42.64;100366.37;153596;1097;103320;-73